Time;durP1;ratioP1;P1;durP2;ratioP2;P2;SDS_P1;SDS_P2;PMS_P1;PMS_P2;Temp;Humidity;BMP_temperature;BMP_pressure;BME280_temperature;BME280_humidity;BME280_pressure;Samples;Min_cycle;Max_cycle;Signal;HPM_P1;HPM_P2
2024/03/05 00:00:39;;;;;;;138.35;62.20;;;;;;;;;;5020842;28;20050;-89
2024/03/05 00:03:06;;;;;;;143.60;62.17;;;;;;;;;;5022776;28;20057;-89
2024/03/05 00:05:34;;;;;;;143.90;62.17;;;;;;;;;;5021337;28;20050;-89
2024/03/05 00:08:02;;;;;;;144.38;61.95;;;;;;;;;;5019112;28;20050;-89
2024/03/05 00:10:31;;;;;;;140.48;60.88;;;;;;;;;;5027263;28;20050;-88
2024/03/05 00:12:59;;;;;;;135.90;60.58;;;;;;;;;;5019039;28;20054;-89
2024/03/05 00:15:26;;;;;;;137.35;57.70;;;;;;;;;;5019123;28;20055;-92
2024/03/05 00:17:54;;;;;;;139.00;57.15;;;;;;;;;;5010737;28;20054;-89
2024/03/05 00:20:21;;;;;;;128.52;57.83;;;;;;;;;;5026524;28;20053;-89
2024/03/05 00:22:50;;;;;;;131.10;56.97;;;;;;;;;;5005942;28;20057;-92
2024/03/05 00:25:18;;;;;;;142.77;58.88;;;;;;;;;;5007228;28;20045;-90
2024/03/05 00:27:45;;;;;;;128.52;53.88;;;;;;;;;;5021645;28;20062;-92
2024/03/05 00:30:13;;;;;;;132.75;55.70;;;;;;;;;;5022354;28;20080;-91
2024/03/05 00:32:41;;;;;;;126.03;55.20;;;;;;;;;;5020388;28;20053;-92
2024/03/05 00:35:10;;;;;;;111.47;51.90;;;;;;;;;;5027514;28;20050;-89
2024/03/05 00:37:37;;;;;;;113.50;50.90;;;;;;;;;;5021209;28;20066;-89
2024/03/05 00:40:09;;;;;;;120.50;52.75;;;;;;;;;;5021959;28;20053;-91
2024/03/05 00:42:36;;;;;;;122.25;56.13;;;;;;;;;;5020731;28;20137;-91
2024/03/05 00:45:07;;;;;;;117.28;51.03;;;;;;;;;;5019036;28;20061;-91
2024/03/05 00:47:35;;;;;;;122.28;52.58;;;;;;;;;;5026568;28;20063;-91
2024/03/05 00:50:07;;;;;;;113.63;51.72;;;;;;;;;;5018230;28;20487;-91
2024/03/05 00:52:34;;;;;;;118.57;51.67;;;;;;;;;;5027471;28;20498;-91
2024/03/05 00:55:01;;;;;;;123.22;53.53;;;;;;;;;;5030156;28;20072;-91
2024/03/05 00:57:29;;;;;;;123.07;54.92;;;;;;;;;;5021134;28;20469;-91
2024/03/05 00:59:56;;;;;;;108.88;50.88;;;;;;;;;;5018089;28;20133;-91
2024/03/05 01:02:24;;;;;;;116.18;52.58;;;;;;;;;;5026156;28;20490;-91
2024/03/05 01:04:52;;;;;;;111.60;50.83;;;;;;;;;;5026203;28;20478;-91
2024/03/05 01:07:20;;;;;;;123.90;54.08;;;;;;;;;;5018139;28;20129;-91
2024/03/05 01:09:49;;;;;;;119.05;53.13;;;;;;;;;;5021295;28;20387;-91
2024/03/05 01:12:16;;;;;;;126.68;53.47;;;;;;;;;;5021511;28;20058;-91
2024/03/05 01:14:44;;;;;;;124.53;53.03;;;;;;;;;;5018837;28;20487;-91
2024/03/05 01:17:13;;;;;;;125.97;54.17;;;;;;;;;;5024530;28;20050;-91
2024/03/05 01:19:40;;;;;;;130.70;53.05;;;;;;;;;;5005254;28;20046;-92
2024/03/05 01:22:07;;;;;;;125.88;54.30;;;;;;;;;;5029837;28;20042;-91
2024/03/05 01:24:35;;;;;;;126.10;53.08;;;;;;;;;;5020497;28;20115;-91
2024/03/05 01:27:03;;;;;;;122.85;53.03;;;;;;;;;;5017708;28;20105;-91
2024/03/05 01:29:30;;;;;;;123.72;52.65;;;;;;;;;;5018373;28;20058;-91
2024/03/05 01:31:59;;;;;;;132.32;53.47;;;;;;;;;;5021618;28;20487;-91
2024/03/05 01:34:27;;;;;;;124.50;52.97;;;;;;;;;;5021224;28;20057;-92
2024/03/05 01:36:58;;;;;;;126.03;53.17;;;;;;;;;;5022016;28;20057;-91
2024/03/05 01:39:26;;;;;;;148.95;55.25;;;;;;;;;;5004937;28;20530;-92
2024/03/05 01:41:55;;;;;;;137.48;55.00;;;;;;;;;;5017699;28;20054;-90
2024/03/05 01:44:22;;;;;;;134.45;55.13;;;;;;;;;;5017497;28;20077;-92
2024/03/05 01:46:51;;;;;;;136.25;54.25;;;;;;;;;;5029352;28;20062;-91
2024/03/05 01:49:20;;;;;;;142.90;54.13;;;;;;;;;;5029037;28;20057;-91
2024/03/05 01:51:48;;;;;;;146.43;57.85;;;;;;;;;;5020247;28;20137;-92
2024/03/05 01:54:17;;;;;;;156.52;58.90;;;;;;;;;;5017524;28;20112;-91
2024/03/05 01:56:48;;;;;;;141.13;56.67;;;;;;;;;;5019893;28;20058;-91
2024/03/05 01:59:18;;;;;;;147.05;55.92;;;;;;;;;;5020737;28;20148;-92
2024/03/05 02:01:46;;;;;;;154.13;58.35;;;;;;;;;;5018138;28;20550;-91
2024/03/05 02:04:15;;;;;;;151.05;56.88;;;;;;;;;;5017589;28;20054;-92
2024/03/05 02:06:43;;;;;;;141.88;57.13;;;;;;;;;;5019662;28;20046;-91
2024/03/05 02:09:15;;;;;;;146.80;58.33;;;;;;;;;;5020458;28;20057;-91
2024/03/05 02:11:42;;;;;;;159.75;59.08;;;;;;;;;;5020794;28;20050;-91
2024/03/05 02:14:12;;;;;;;150.20;57.55;;;;;;;;;;5020650;28;20054;-91
2024/03/05 02:16:40;;;;;;;152.63;59.10;;;;;;;;;;5018864;28;20123;-91
2024/03/05 02:19:10;;;;;;;151.00;56.83;;;;;;;;;;5017236;28;20062;-91
2024/03/05 02:21:38;;;;;;;153.20;58.35;;;;;;;;;;5018889;28;20172;-91
2024/03/05 02:24:05;;;;;;;152.20;58.55;;;;;;;;;;5020550;28;20050;-92
2024/03/05 02:26:32;;;;;;;145.55;56.17;;;;;;;;;;5028848;28;20049;-92
2024/03/05 02:29:00;;;;;;;153.82;58.50;;;;;;;;;;5020600;28;20084;-92
2024/03/05 02:31:27;;;;;;;150.00;56.67;;;;;;;;;;5020300;28;20069;-92
2024/03/05 02:33:55;;;;;;;152.77;58.58;;;;;;;;;;5017025;28;20542;-91
2024/03/05 02:36:22;;;;;;;155.73;57.58;;;;;;;;;;5016861;28;20066;-91
2024/03/05 02:38:50;;;;;;;152.10;58.65;;;;;;;;;;5020021;28;20057;-91
2024/03/05 02:41:18;;;;;;;154.98;57.30;;;;;;;;;;5020996;28;20066;-91
2024/03/05 02:43:45;;;;;;;137.48;57.03;;;;;;;;;;5023833;28;20050;-91
2024/03/05 02:46:13;;;;;;;151.55;57.92;;;;;;;;;;5009753;28;20058;-91
2024/03/05 02:48:40;;;;;;;146.02;57.88;;;;;;;;;;5022365;28;20081;-91
2024/03/05 02:51:08;;;;;;;140.65;57.88;;;;;;;;;;5024108;28;20054;-91
2024/03/05 02:53:35;;;;;;;136.30;55.22;;;;;;;;;;5023935;28;20050;-92
2024/03/05 02:56:04;;;;;;;138.30;53.95;;;;;;;;;;5024194;28;20100;-92
2024/03/05 02:58:32;;;;;;;139.80;55.08;;;;;;;;;;5024022;28;20054;-92
2024/03/05 03:00:59;;;;;;;139.40;55.25;;;;;;;;;;5015481;28;20461;-91
2024/03/05 03:03:26;;;;;;;132.15;52.40;;;;;;;;;;5012962;28;20046;-91
2024/03/05 03:05:54;;;;;;;136.75;53.45;;;;;;;;;;5030154;28;20054;-91
2024/03/05 03:08:21;;;;;;;138.32;54.25;;;;;;;;;;5023686;28;20110;-92
2024/03/05 03:10:49;;;;;;;140.18;54.28;;;;;;;;;;5020842;28;20077;-92
2024/03/05 03:13:16;;;;;;;136.63;53.20;;;;;;;;;;5019992;28;20054;-91
2024/03/05 03:15:43;;;;;;;136.43;52.60;;;;;;;;;;5028289;28;20112;-92
2024/03/05 03:18:11;;;;;;;146.77;55.50;;;;;;;;;;5026131;28;20045;-91
2024/03/05 03:20:38;;;;;;;153.20;57.65;;;;;;;;;;5022128;28;20406;-90
2024/03/05 03:23:05;;;;;;;148.15;55.95;;;;;;;;;;5020189;28;20061;-91
2024/03/05 03:25:32;;;;;;;167.98;59.08;;;;;;;;;;5021059;28;20050;-91
2024/03/05 03:28:03;;;;;;;169.85;59.00;;;;;;;;;;5023047;28;20046;-92
2024/03/05 03:30:31;;;;;;;145.30;56.00;;;;;;;;;;5022529;28;20050;-90
2024/03/05 03:32:58;;;;;;;156.10;57.97;;;;;;;;;;5019608;28;20050;-92
2024/03/05 03:35:26;;;;;;;155.45;57.22;;;;;;;;;;5028064;28;20161;-89
2024/03/05 03:37:53;;;;;;;172.15;61.92;;;;;;;;;;5015520;28;20104;-92
2024/03/05 03:40:21;;;;;;;150.90;55.95;;;;;;;;;;5023008;28;20050;-92
2024/03/05 03:42:50;;;;;;;147.60;57.42;;;;;;;;;;5022824;28;20054;-92
2024/03/05 03:45:18;;;;;;;139.02;55.00;;;;;;;;;;5031277;28;20054;-92
2024/03/05 03:47:46;;;;;;;152.57;57.25;;;;;;;;;;5023395;28;20087;-92
2024/03/05 03:50:14;;;;;;;161.60;59.47;;;;;;;;;;5022688;28;20473;-92
2024/03/05 03:52:43;;;;;;;162.27;56.97;;;;;;;;;;5022789;28;20054;-92
2024/03/05 03:55:11;;;;;;;140.18;55.40;;;;;;;;;;5023000;28;20104;-92
2024/03/05 03:57:38;;;;;;;129.52;51.25;;;;;;;;;;5021035;28;20054;-91
2024/03/05 04:00:07;;;;;;;143.10;54.35;;;;;;;;;;5024821;28;20490;-92
2024/03/05 04:02:40;;;;;;;145.18;56.53;;;;;;;;;;5006579;28;20117;-92
2024/03/05 04:05:09;;;;;;;137.13;54.78;;;;;;;;;;5022823;28;20049;-92
2024/03/05 04:07:37;;;;;;;131.15;51.47;;;;;;;;;;5021061;28;20112;-91
2024/03/05 04:10:10;;;;;;;138.27;53.22;;;;;;;;;;5019002;28;20459;-92
2024/03/05 04:12:41;;;;;;;134.27;53.55;;;;;;;;;;5027438;28;20081;-92
2024/03/05 04:15:12;;;;;;;136.52;55.28;;;;;;;;;;5019741;28;20086;-91
2024/03/05 04:17:39;;;;;;;131.95;54.15;;;;;;;;;;5025875;28;20410;-92
2024/03/05 04:20:08;;;;;;;144.52;55.40;;;;;;;;;;5030599;28;20202;-92
2024/03/05 04:22:40;;;;;;;152.75;55.60;;;;;;;;;;5020469;28;20053;-91
2024/03/05 04:25:07;;;;;;;144.80;55.85;;;;;;;;;;5019110;28;20475;-92
2024/03/05 04:27:41;;;;;;;145.20;56.13;;;;;;;;;;5020180;28;20055;-92
2024/03/05 04:30:12;;;;;;;;;;;;;;;;;;5022556;28;20104;-92
2024/03/05 04:32:46;;;;;;;118.45;48.00;;;;;;;;;;5004065;28;19921;-91
2024/03/05 04:35:16;;;;;;;131.43;51.50;;;;;;;;;;5025782;28;20058;-91
2024/03/05 04:37:43;;;;;;;126.43;49.45;;;;;;;;;;5006151;28;20066;-92
2024/03/05 04:40:11;;;;;;;131.27;52.50;;;;;;;;;;5022318;28;20509;-92
2024/03/05 04:42:38;;;;;;;134.85;52.65;;;;;;;;;;5020802;28;20142;-91
2024/03/05 04:45:07;;;;;;;114.88;48.83;;;;;;;;;;5019205;28;20101;-92
2024/03/05 04:47:35;;;;;;;114.30;48.05;;;;;;;;;;5018111;28;20677;-92
2024/03/05 04:50:04;;;;;;;128.10;51.65;;;;;;;;;;5021719;28;20049;-92
2024/03/05 04:52:33;;;;;;;119.18;46.83;;;;;;;;;;5020862;28;20053;-91
2024/03/05 04:55:00;;;;;;;136.32;50.40;;;;;;;;;;5018630;28;20047;-90
2024/03/05 04:57:29;;;;;;;107.43;47.03;;;;;;;;;;5018098;28;20052;-89
2024/03/05 04:59:58;;;;;;;113.55;48.42;;;;;;;;;;5024537;28;20478;-90
2024/03/05 05:02:25;;;;;;;111.88;47.17;;;;;;;;;;5017944;28;20062;-92
2024/03/05 05:04:52;;;;;;;129.73;50.20;;;;;;;;;;5018590;28;20058;-91
2024/03/05 05:07:23;;;;;;;121.05;48.55;;;;;;;;;;5003416;28;20050;-92
2024/03/05 05:09:51;;;;;;;125.65;50.72;;;;;;;;;;5018569;28;20101;-90
2024/03/05 05:12:18;;;;;;;135.93;53.33;;;;;;;;;;5018115;28;20100;-91
2024/03/05 05:14:45;;;;;;;129.45;52.38;;;;;;;;;;5026376;28;20058;-92
2024/03/05 05:17:14;;;;;;;137.45;52.83;;;;;;;;;;5017996;28;20073;-92
2024/03/05 05:19:41;;;;;;;152.85;55.80;;;;;;;;;;5018277;28;20057;-91
2024/03/05 05:22:08;;;;;;;133.23;50.45;;;;;;;;;;5018104;28;20051;-90
2024/03/05 05:24:36;;;;;;;147.50;55.65;;;;;;;;;;5002761;28;20057;-92
2024/03/05 05:27:04;;;;;;;157.15;55.45;;;;;;;;;;5023355;28;20050;-92
2024/03/05 05:29:31;;;;;;;179.93;60.95;;;;;;;;;;5004632;28;20108;-92
2024/03/05 05:32:08;;;;;;;170.68;59.85;;;;;;;;;;5024583;28;20607;-92
2024/03/05 05:34:36;;;;;;;193.40;63.00;;;;;;;;;;5029377;28;20057;-92
2024/03/05 05:37:04;;;;;;;193.95;64.13;;;;;;;;;;5023329;28;20061;-91
2024/03/05 05:39:32;;;;;;;207.57;66.70;;;;;;;;;;5012212;28;20192;-92
2024/03/05 05:42:00;;;;;;;198.15;68.45;;;;;;;;;;5022256;28;20132;-91
2024/03/05 05:44:27;;;;;;;214.88;68.15;;;;;;;;;;5004590;28;20054;-92
2024/03/05 05:46:54;;;;;;;189.35;62.33;;;;;;;;;;5021040;28;20557;-91
2024/03/05 05:49:23;;;;;;;199.15;65.75;;;;;;;;;;5020827;28;20053;-92
2024/03/05 05:51:51;;;;;;;180.35;64.20;;;;;;;;;;5017972;28;20046;-92
2024/03/05 05:54:18;;;;;;;190.50;65.22;;;;;;;;;;5017658;28;20495;-91
2024/03/05 05:56:52;;;;;;;206.48;68.82;;;;;;;;;;5025431;28;20396;-91
2024/03/05 05:59:19;;;;;;;181.30;62.83;;;;;;;;;;5017878;28;20108;-92
2024/03/05 06:01:47;;;;;;;180.65;62.30;;;;;;;;;;5020250;28;20104;-92
2024/03/05 06:04:15;;;;;;;175.80;62.60;;;;;;;;;;5028938;28;20462;-91
2024/03/05 06:06:43;;;;;;;163.75;61.85;;;;;;;;;;5004757;28;20053;-92
2024/03/05 06:09:10;;;;;;;163.38;61.83;;;;;;;;;;5020486;28;20111;-91
2024/03/05 06:11:38;;;;;;;176.10;61.42;;;;;;;;;;5020591;28;20058;-92
2024/03/05 06:14:09;;;;;;;166.65;59.78;;;;;;;;;;5026843;28;20057;-92
2024/03/05 06:16:36;;;;;;;164.70;57.83;;;;;;;;;;5017176;28;20050;-91
2024/03/05 06:19:04;;;;;;;166.55;59.30;;;;;;;;;;5011685;28;20065;-92
2024/03/05 06:21:31;;;;;;;170.70;59.85;;;;;;;;;;5029507;28;20136;-92
2024/03/05 06:23:59;;;;;;;167.75;59.47;;;;;;;;;;5021334;28;20462;-92
2024/03/05 06:26:27;;;;;;;173.35;60.17;;;;;;;;;;5021361;28;20058;-92
2024/03/05 06:28:54;;;;;;;173.98;59.47;;;;;;;;;;5024692;28;20050;-92
2024/03/05 06:31:22;;;;;;;165.23;58.08;;;;;;;;;;5009118;28;20148;-92
2024/03/05 06:33:51;;;;;;;168.63;60.30;;;;;;;;;;5024386;28;20053;-92
2024/03/05 06:36:19;;;;;;;166.30;57.08;;;;;;;;;;5024555;28;20418;-92
2024/03/05 06:38:46;;;;;;;167.88;58.58;;;;;;;;;;5021887;28;20058;-92
2024/03/05 06:41:14;;;;;;;158.20;58.35;;;;;;;;;;5027673;28;20046;-92
2024/03/05 06:43:42;;;;;;;158.57;56.08;;;;;;;;;;5008430;28;20112;-92
2024/03/05 06:46:10;;;;;;;145.07;54.03;;;;;;;;;;5026242;28;20054;-92
2024/03/05 06:48:41;;;;;;;147.65;56.15;;;;;;;;;;5034170;28;20054;-92
2024/03/05 06:51:26;;;;;;;151.88;56.95;;;;;;;;;;5028081;28;20107;-92
2024/03/05 06:56:40;;;;;;;172.60;58.88;;;;;;;;;;5015369;28;20104;-92
2024/03/05 06:59:11;;;;;;;164.25;59.90;;;;;;;;;;5020793;28;20058;-91
2024/03/05 07:01:38;;;;;;;166.02;57.83;;;;;;;;;;5022259;28;20058;-92
2024/03/05 07:04:06;;;;;;;164.48;58.13;;;;;;;;;;5024039;28;20669;-92
2024/03/05 07:06:34;;;;;;;157.57;55.80;;;;;;;;;;5023084;28;20089;-91
2024/03/05 07:09:02;;;;;;;152.90;57.35;;;;;;;;;;5021143;28;20133;-92
2024/03/05 07:11:29;;;;;;;156.88;59.08;;;;;;;;;;5021051;28;20046;-92
2024/03/05 07:13:57;;;;;;;162.20;59.72;;;;;;;;;;5023679;28;20127;-91
2024/03/05 07:16:25;;;;;;;153.80;57.35;;;;;;;;;;5024131;28;20049;-92
2024/03/05 07:18:53;;;;;;;158.23;57.55;;;;;;;;;;5008074;28;20049;-92
2024/03/05 07:21:22;;;;;;;151.63;56.65;;;;;;;;;;5031844;28;20045;-92
2024/03/05 07:23:50;;;;;;;153.32;54.63;;;;;;;;;;5019411;28;20228;-92
2024/03/05 07:26:18;;;;;;;144.57;53.63;;;;;;;;;;5027009;28;20142;-92
2024/03/05 07:28:45;;;;;;;150.23;56.78;;;;;;;;;;5007087;28;20058;-91
2024/03/05 07:31:14;;;;;;;143.02;55.33;;;;;;;;;;5028321;28;20503;-92
2024/03/05 07:33:42;;;;;;;145.95;55.05;;;;;;;;;;5013416;28;20061;-91
2024/03/05 07:36:11;;;;;;;125.68;51.83;;;;;;;;;;5020294;28;20109;-92
2024/03/05 07:38:38;;;;;;;134.50;52.33;;;;;;;;;;5006061;28;20050;-91
2024/03/05 07:41:07;;;;;;;133.63;51.20;;;;;;;;;;5007899;28;20486;-92
2024/03/05 07:43:48;;;;;;;119.05;49.42;;;;;;;;;;5018551;28;20090;-91
2024/03/05 07:46:18;;;;;;;126.60;49.75;;;;;;;;;;5011416;28;20474;-92
2024/03/05 07:48:45;;;;;;;117.22;49.30;;;;;;;;;;5007141;28;20054;-92
2024/03/05 07:51:13;;;;;;;124.22;50.65;;;;;;;;;;5022928;28;20042;-91
2024/03/05 07:53:50;;;;;;;113.70;48.05;;;;;;;;;;5018397;28;20489;-91
2024/03/05 07:56:18;;;;;;;128.18;52.28;;;;;;;;;;5004517;28;20096;-91
2024/03/05 07:58:45;;;;;;;122.70;49.38;;;;;;;;;;5028346;28;20054;-91
2024/03/05 08:01:12;;;;;;;135.38;52.25;;;;;;;;;;5009038;28;20058;-91
2024/03/05 08:03:41;;;;;;;134.38;51.80;;;;;;;;;;5030480;28;20042;-89
2024/03/05 08:06:08;;;;;;;148.85;54.40;;;;;;;;;;5008131;28;20421;-92
2024/03/05 08:08:36;;;;;;;148.75;52.92;;;;;;;;;;5023056;28;20050;-89
2024/03/05 08:11:03;;;;;;;144.48;54.03;;;;;;;;;;5008342;28;20073;-90
2024/03/05 08:13:34;;;;;;;128.50;50.95;;;;;;;;;;5029874;28;20116;-91
2024/03/05 08:16:05;;;;;;;132.25;53.25;;;;;;;;;;5019533;28;20072;-89
2024/03/05 08:18:32;;;;;;;127.18;50.92;;;;;;;;;;5020133;28;20082;-89
2024/03/05 08:21:01;;;;;;;120.35;48.33;;;;;;;;;;5022899;28;20556;-90
2024/03/05 08:23:29;;;;;;;118.40;49.13;;;;;;;;;;5022089;28;20233;-90
2024/03/05 08:25:56;;;;;;;114.00;48.40;;;;;;;;;;5019295;28;20054;-89
2024/03/05 08:28:24;;;;;;;105.25;45.60;;;;;;;;;;5019357;28;20050;-89
2024/03/05 08:30:53;;;;;;;112.00;48.55;;;;;;;;;;5019016;28;20054;-90
2024/03/05 08:33:23;;;;;;;106.85;48.38;;;;;;;;;;5026652;28;20427;-89
2024/03/05 08:35:51;;;;;;;101.20;44.88;;;;;;;;;;5006132;28;20474;-89
2024/03/05 08:38:18;;;;;;;94.53;43.80;;;;;;;;;;5014032;28;20096;-89
2024/03/05 08:40:47;;;;;;;94.65;42.70;;;;;;;;;;5013888;28;20050;-89
2024/03/05 08:43:15;;;;;;;88.28;42.22;;;;;;;;;;5021847;28;20060;-89
2024/03/05 08:45:42;;;;;;;88.10;42.15;;;;;;;;;;5028279;28;20140;-89
2024/03/05 08:48:09;;;;;;;88.82;42.17;;;;;;;;;;5018809;28;20050;-89
2024/03/05 08:50:36;;;;;;;100.13;44.97;;;;;;;;;;5028426;28;20057;-89
2024/03/05 08:53:04;;;;;;;92.82;42.72;;;;;;;;;;5008798;28;20140;-90
2024/03/05 08:55:32;;;;;;;84.28;41.60;;;;;;;;;;5019176;28;20108;-89
2024/03/05 08:58:00;;;;;;;91.20;40.90;;;;;;;;;;5029951;28;20056;-89
2024/03/05 09:00:29;;;;;;;94.05;41.50;;;;;;;;;;5021418;28;20057;-89
2024/03/05 09:03:12;;;;;;;84.68;39.22;;;;;;;;;;5017060;28;20084;-89
2024/03/05 09:05:39;;;;;;;87.65;39.90;;;;;;;;;;5020236;28;20056;-90
2024/03/05 09:08:13;;;;;;;85.35;40.75;;;;;;;;;;5020731;28;20050;-89
2024/03/05 09:10:40;;;;;;;80.75;41.20;;;;;;;;;;5019608;28;20054;-89
2024/03/05 09:13:08;;;;;;;85.65;41.22;;;;;;;;;;5023977;28;20092;-89
2024/03/05 09:15:36;;;;;;;86.10;40.70;;;;;;;;;;5031261;28;20061;-89
2024/03/05 09:18:12;;;;;;;;;;;;;;;;;;5023752;28;20132;-89
2024/03/05 09:20:41;;;;;;;78.80;39.55;;;;;;;;;;5004521;28;19952;-89
2024/03/05 09:23:09;;;;;;;74.45;37.53;;;;;;;;;;5018135;28;20089;-89
2024/03/05 09:25:38;;;;;;;80.93;39.80;;;;;;;;;;5019857;28;20134;-89
2024/03/05 09:28:05;;;;;;;81.80;41.45;;;;;;;;;;5007743;28;20046;-89
2024/03/05 09:30:33;;;;;;;78.35;39.50;;;;;;;;;;5019136;28;20097;-89
2024/03/05 09:33:02;;;;;;;71.10;37.50;;;;;;;;;;5021451;28;20042;-89
2024/03/05 09:35:30;;;;;;;77.38;38.35;;;;;;;;;;5005772;28;20054;-88
2024/03/05 09:37:57;;;;;;;76.40;37.67;;;;;;;;;;5010290;28;20403;-89
2024/03/05 09:40:25;;;;;;;74.95;37.33;;;;;;;;;;5025891;28;20061;-89
2024/03/05 09:42:53;;;;;;;75.15;37.17;;;;;;;;;;5010605;28;20509;-89
2024/03/05 09:45:22;;;;;;;72.57;38.15;;;;;;;;;;5017517;28;20403;-89
2024/03/05 09:47:49;;;;;;;68.63;37.13;;;;;;;;;;5005121;28;20058;-88
2024/03/05 09:50:17;;;;;;;69.32;36.65;;;;;;;;;;5005578;28;20050;-89
2024/03/05 09:52:46;;;;;;;75.32;37.50;;;;;;;;;;5021256;28;20046;-88
2024/03/05 09:55:16;;;;;;;64.68;36.00;;;;;;;;;;5006616;28;20054;-89
2024/03/05 09:57:45;;;;;;;64.00;34.03;;;;;;;;;;5004801;28;20494;-89
2024/03/05 10:00:17;;;;;;;66.22;35.38;;;;;;;;;;5020728;28;20065;-89
2024/03/05 10:02:51;;;;;;;74.78;36.83;;;;;;;;;;5026324;28;20052;-89
2024/03/05 10:05:19;;;;;;;69.13;37.05;;;;;;;;;;5017511;28;20050;-88
2024/03/05 10:07:47;;;;;;;65.60;35.30;;;;;;;;;;5028554;28;20060;-89
2024/03/05 10:10:20;;;;;;;66.50;36.38;;;;;;;;;;5020739;28;20057;-89
2024/03/05 10:12:49;;;;;;;67.43;35.40;;;;;;;;;;5020750;28;20454;-89
2024/03/05 10:15:18;;;;;;;64.22;34.08;;;;;;;;;;5020558;28;20465;-89
2024/03/05 10:17:49;;;;;;;63.85;34.30;;;;;;;;;;5018810;28;20128;-89
2024/03/05 10:20:33;;;;;;;68.57;36.40;;;;;;;;;;5017239;28;20104;-89
2024/03/05 10:23:02;;;;;;;68.85;34.70;;;;;;;;;;5001289;28;20046;-88
2024/03/05 10:25:32;;;;;;;61.78;33.80;;;;;;;;;;5018025;28;20511;-88
2024/03/05 10:28:00;;;;;;;64.53;36.00;;;;;;;;;;5029152;28;20053;-89
2024/03/05 10:30:31;;;;;;;69.57;37.00;;;;;;;;;;5025206;28;20491;-89
2024/03/05 10:33:02;;;;;;;73.43;37.75;;;;;;;;;;5028828;28;20108;-89
2024/03/05 10:35:31;;;;;;;73.72;37.13;;;;;;;;;;5020396;28;20145;-86
2024/03/05 10:38:03;;;;;;;70.72;37.38;;;;;;;;;;5020756;28;20054;-88
2024/03/05 10:40:37;;;;;;;67.20;36.00;;;;;;;;;;5020170;28;20058;-88
2024/03/05 10:43:06;;;;;;;70.47;37.03;;;;;;;;;;5017578;28;20054;-88
2024/03/05 10:45:34;;;;;;;68.40;35.90;;;;;;;;;;5026560;28;20073;-88
2024/03/05 10:48:02;;;;;;;69.22;36.00;;;;;;;;;;5020685;28;20136;-88
2024/03/05 10:50:29;;;;;;;71.20;37.90;;;;;;;;;;5025633;28;20054;-88
2024/03/05 10:52:57;;;;;;;67.07;34.58;;;;;;;;;;5008373;28;20054;-88
2024/03/05 10:55:25;;;;;;;69.80;35.80;;;;;;;;;;5024941;28;20053;-88
2024/03/05 11:00:42;;;;;;;64.00;33.85;;;;;;;;;;5006682;28;20502;-88
2024/03/05 11:03:10;;;;;;;63.47;33.70;;;;;;;;;;5026397;28;20533;-88
2024/03/05 11:05:39;;;;;;;58.80;32.58;;;;;;;;;;5007542;28;20054;-88
2024/03/05 11:08:12;;;;;;;60.35;33.38;;;;;;;;;;5020664;28;20081;-88
2024/03/05 11:10:41;;;;;;;55.97;31.45;;;;;;;;;;5028861;28;20077;-88
2024/03/05 11:13:10;;;;;;;59.17;33.40;;;;;;;;;;5020470;28;20054;-88
2024/03/05 11:15:37;;;;;;;55.33;31.13;;;;;;;;;;5006369;28;20058;-88
2024/03/05 11:18:24;;;;;;;59.33;32.92;;;;;;;;;;5024049;28;20089;-88
2024/03/05 11:20:53;;;;;;;63.67;34.47;;;;;;;;;;5020619;28;20051;-88
2024/03/05 11:23:22;;;;;;;56.92;32.17;;;;;;;;;;5027622;28;20104;-88
2024/03/05 11:25:51;;;;;;;65.55;35.42;;;;;;;;;;5020286;28;20499;-88
2024/03/05 11:28:20;;;;;;;59.80;35.08;;;;;;;;;;5020054;28;20051;-88
2024/03/05 11:30:54;;;;;;;63.80;33.47;;;;;;;;;;5023280;28;20506;-87
2024/03/05 11:33:26;;;;;;;66.20;34.05;;;;;;;;;;5007697;28;20094;-88
2024/03/05 11:35:55;;;;;;;57.97;32.60;;;;;;;;;;5027545;28;20145;-88
2024/03/05 11:38:25;;;;;;;57.85;30.67;;;;;;;;;;5019650;28;20124;-88
2024/03/05 11:40:58;;;;;;;56.80;31.05;;;;;;;;;;5004376;28;20100;-88
2024/03/05 11:43:35;;;;;;;53.35;30.85;;;;;;;;;;5019858;28;20138;-88
2024/03/05 11:46:03;;;;;;;61.97;32.85;;;;;;;;;;5013400;28;20062;-87
2024/03/05 11:48:30;;;;;;;55.67;32.20;;;;;;;;;;5029512;28;20076;-88
2024/03/05 11:50:58;;;;;;;52.35;30.13;;;;;;;;;;5022972;28;20167;-88
2024/03/05 11:53:27;;;;;;;56.63;32.22;;;;;;;;;;5007512;28;20537;-88
2024/03/05 11:55:54;;;;;;;63.45;33.50;;;;;;;;;;5023383;28;20050;-86
2024/03/05 11:58:25;;;;;;;56.08;32.53;;;;;;;;;;5007674;28;20049;-88
2024/03/05 12:01:19;;;;;;;58.85;33.03;;;;;;;;;;5019608;28;20062;-87
2024/03/05 12:03:49;;;;;;;55.53;32.88;;;;;;;;;;5013642;28;20060;-88
2024/03/05 12:06:16;;;;;;;56.45;32.55;;;;;;;;;;5015974;28;20097;-88
2024/03/05 12:08:44;;;;;;;60.28;32.55;;;;;;;;;;5012070;28;20054;-87
2024/03/05 12:11:11;;;;;;;56.92;32.83;;;;;;;;;;5003528;28;20097;-87
2024/03/05 12:13:39;;;;;;;55.40;31.30;;;;;;;;;;5028403;28;20057;-88
2024/03/05 12:16:11;;;;;;;51.83;30.40;;;;;;;;;;5022580;28;20057;-88
2024/03/05 12:18:38;;;;;;;53.38;31.05;;;;;;;;;;5021030;28;20046;-88
2024/03/05 12:21:06;;;;;;;56.80;30.60;;;;;;;;;;5003796;28;20105;-88
2024/03/05 12:23:33;;;;;;;55.28;31.10;;;;;;;;;;5019857;28;20050;-88
2024/03/05 12:26:09;;;;;;;57.80;31.95;;;;;;;;;;5014979;28;20050;-88
2024/03/05 12:28:36;;;;;;;57.50;31.70;;;;;;;;;;5020795;28;20128;-88
2024/03/05 12:31:04;;;;;;;54.50;30.05;;;;;;;;;;5003842;28;20109;-88
2024/03/05 12:33:31;;;;;;;54.97;30.40;;;;;;;;;;5019577;28;20061;-88
2024/03/05 12:35:59;;;;;;;53.40;30.23;;;;;;;;;;5022056;28;20050;-88
2024/03/05 12:38:32;;;;;;;54.45;30.63;;;;;;;;;;5015098;28;20112;-88
2024/03/05 12:40:59;;;;;;;;;;;;;;;;;;5018917;28;20542;-88
2024/03/05 12:43:28;;;;;;;51.67;28.58;;;;;;;;;;5003526;28;20032;-88
2024/03/05 12:46:03;;;;;;;45.05;27.17;;;;;;;;;;5022654;28;20050;-88
2024/03/05 12:48:31;;;;;;;53.53;28.63;;;;;;;;;;5021426;28;20054;-88
2024/03/05 12:50:59;;;;;;;51.33;27.60;;;;;;;;;;5018801;28;20141;-88
2024/03/05 12:53:27;;;;;;;46.95;27.88;;;;;;;;;;5018144;28;20393;-88
2024/03/05 12:56:01;;;;;;;47.80;27.58;;;;;;;;;;5006605;28;20482;-88
2024/03/05 12:58:39;;;;;;;45.97;27.00;;;;;;;;;;5021611;28;20081;-89
2024/03/05 13:01:10;;;;;;;42.78;25.83;;;;;;;;;;5031346;28;20050;-88
2024/03/05 13:03:38;;;;;;;46.97;26.85;;;;;;;;;;5020897;28;20061;-88
2024/03/05 13:06:05;;;;;;;42.85;26.23;;;;;;;;;;5021493;28;20045;-88
2024/03/05 13:08:34;;;;;;;45.05;25.52;;;;;;;;;;5020748;28;20041;-88
2024/03/05 13:11:01;;;;;;;49.22;27.33;;;;;;;;;;5018617;28;20090;-88
2024/03/05 13:13:28;;;;;;;48.00;26.52;;;;;;;;;;5025813;28;20050;-88
2024/03/05 13:15:56;;;;;;;47.58;27.08;;;;;;;;;;5022081;28;20050;-88
2024/03/05 13:18:23;;;;;;;44.92;26.58;;;;;;;;;;5021311;28;20050;-88
2024/03/05 13:20:50;;;;;;;41.45;24.50;;;;;;;;;;5017932;28;20054;-88
2024/03/05 13:23:22;;;;;;;42.22;24.88;;;;;;;;;;5017601;28;20491;-88
2024/03/05 13:25:49;;;;;;;44.58;25.95;;;;;;;;;;5021159;28;20108;-89
2024/03/05 13:28:17;;;;;;;43.35;24.90;;;;;;;;;;5021156;28;20140;-88
2024/03/05 13:30:44;;;;;;;49.30;27.67;;;;;;;;;;5018602;28;20565;-88
2024/03/05 13:33:11;;;;;;;45.55;27.00;;;;;;;;;;5017726;28;20120;-88
2024/03/05 13:35:39;;;;;;;48.25;27.15;;;;;;;;;;5019472;28;20094;-88
2024/03/05 13:38:07;;;;;;;43.03;25.60;;;;;;;;;;5007630;28;20070;-89
2024/03/05 13:40:36;;;;;;;46.13;26.42;;;;;;;;;;5026051;28;20056;-88
2024/03/05 13:43:04;;;;;;;45.47;26.33;;;;;;;;;;5017745;28;20513;-88
2024/03/05 13:45:31;;;;;;;53.00;27.40;;;;;;;;;;5018237;28;20054;-88
2024/03/05 13:47:58;;;;;;;47.40;26.65;;;;;;;;;;5021250;28;20050;-89
2024/03/05 13:50:27;;;;;;;47.45;26.63;;;;;;;;;;5013092;28;20124;-88
2024/03/05 13:52:54;;;;;;;51.60;28.08;;;;;;;;;;5025985;28;20049;-88
2024/03/05 13:55:25;;;;;;;48.78;27.65;;;;;;;;;;5017055;28;20043;-88
2024/03/05 13:57:53;;;;;;;44.20;26.17;;;;;;;;;;5020869;28;20145;-88
2024/03/05 14:00:20;;;;;;;50.03;28.00;;;;;;;;;;5005077;28;20279;-88
2024/03/05 14:02:48;;;;;;;47.28;24.92;;;;;;;;;;5028347;28;20057;-88
2024/03/05 14:05:16;;;;;;;40.92;24.25;;;;;;;;;;5020900;28;20138;-88
2024/03/05 14:07:44;;;;;;;46.22;24.13;;;;;;;;;;5021134;28;20042;-87
2024/03/05 14:10:11;;;;;;;48.60;26.05;;;;;;;;;;5021300;28;20510;-88
2024/03/05 14:12:40;;;;;;;45.00;25.52;;;;;;;;;;5019370;28;20104;-88
2024/03/05 14:15:19;;;;;;;47.05;25.02;;;;;;;;;;5026634;28;20065;-88
2024/03/05 14:17:48;;;;;;;43.20;24.65;;;;;;;;;;5020716;28;20104;-88
2024/03/05 14:20:19;;;;;;;43.95;24.25;;;;;;;;;;5014555;28;20494;-89
2024/03/05 14:22:47;;;;;;;44.20;24.05;;;;;;;;;;5020057;28;20105;-89
2024/03/05 14:25:16;;;;;;;44.08;24.17;;;;;;;;;;5006249;28;20054;-89